Kezdőlap
METAR-TAF:

METAR-TAF

Repülőterek :

Livingstone, Zambia

földrajzi szélesség: 17-49-18S, földrajzi hosszúság: 025-49-22E, magasság: 991 m

METAR: hiányzik

Idő: 17:05 (15:05 UTC)

Előrejelzés

A jelentés 11 órával és 5 perccel ezelõtt készült, 04:00 UTC
Az előrejelzés 18-én 06 óra UTC és 19-én 12 óra UTC között érvényes
Keleti szél 10 kt
Látótávolság 10 km, vagy több
Kevés felhő 2500 lábon
18-én 12 óra UTC és 18-én 14 óra UTC között fokozatosan kialakuló
Keleti szél 10 kt
18-én 18 óra UTC és 18-én 20 óra UTC között fokozatosan kialakuló
Északkeleti szél 5 kt
Látótávolság 10 km, vagy több
felhőtlen 1500 m magasságban, és nincs gomolyfelhõ

TAF: FLHN 180400Z 1806/1912 09010KT 9999 FEW025 BECMG 1812/1814 09010KT BECMG 1818/1820 04005KT CAVOK

Meteorológiai megfigyelések és előrejelzések több, mint 4000 repülőtéren (METAR és TAF jelentéseket).

A térképen piros és sárga pontok jelzik az elérhető meteorológiai állomásokat.

Mozgassa az egeret a pont fölött, hogy megjelenjen az állomás neve.

Azután kattintson az időjárási megfigyelések és előrejelzések megtekintéséhez.

A térkép megváltoztatása: kattintson a fekete keresztel jelölt zöld gombra ráközelítéshez, a vonallal jelölt zöld gombra távolításhoz, vagy a zöld nyilakra a szomszédos térképek eléréséhez.


METAR-TAF: